Ear Falls, Canada
Current Conditions -  °F | °C
As of 9:00 AM on Saturday 25 Oct 2014 (Local Time) from CYRL Reporting Station
Overcast Overcast  
Wind Chill: 36°   Ceiling: 2200
Heat Index: 43°   Visibility: 15mi
Dew Point: 34°   Wind: 13mph
Humidity: 70%   Direction: 290°WNW
Pressure: 29.74"   Gusts: 25mph
Location:  50.64°N, 93.23°W
Report Text: CYRL 251400Z 29011G22KT 15SM BKN022 OVC035 06/01 A2974 RMK SC5SC3 SLP081
Loading
Personal Weather Stations






























Interactive Weather Map
Tropical Storm Tracking
New forecast layout! Learn more

10-Day Weather Forecast

Advertisements
Track Severe Weather on mobile